Time,TemperatureF,DewpointF,PressureIn,WindDirection,WindDirectionDegrees,WindSpeedMPH,WindSpeedGustMPH,Humidity,HourlyPrecipIn,Conditions,Clouds,dailyrainin,SoftwareType,DateUTC
2013-01-24 00:11:00,2.3,-6.0,30.19,NW,310,0.0,2.0,69,0.00,,,0.00,weatherlink.com 1.10,2013-01-24 05:11:00,
2013-01-24 00:25:00,2.6,-5.0,30.19,NNE,24,0.0,1.0,69,0.00,,,0.00,weatherlink.com 1.10,2013-01-24 05:25:00,
2013-01-24 00:40:00,1.9,-6.0,30.19,NNE,24,0.0,0.0,71,0.00,,,0.00,weatherlink.com 1.10,2013-01-24 05:40:00,
2013-01-24 00:56:00,1.4,-5.0,30.19,NNE,24,0.0,1.0,73,0.00,,,0.00,weatherlink.com 1.10,2013-01-24 05:56:00,
2013-01-24 01:11:00,1.3,-5.0,30.19,NNE,24,0.0,0.0,74,0.00,,,0.00,weatherlink.com 1.10,2013-01-24 06:11:00,
2013-01-24 01:26:00,1.2,-5.0,30.20,NNE,24,0.0,0.0,75,0.00,,,0.00,weatherlink.com 1.10,2013-01-24 06:26:00,
2013-01-24 01:41:00,0.8,-5.0,30.20,NNE,24,0.0,0.0,76,0.00,,,0.00,weatherlink.com 1.10,2013-01-24 06:41:00,
2013-01-24 01:56:00,0.4,-5.0,30.20,NNE,24,0.0,0.0,78,0.00,,,0.00,weatherlink.com 1.10,2013-01-24 06:56:00,
2013-01-24 02:11:00,-0.1,-5.0,30.20,NNE,24,0.0,0.0,80,0.00,,,0.00,weatherlink.com 1.10,2013-01-24 07:11:00,
2013-01-24 02:26:00,-0.3,-5.0,30.20,NNE,24,0.0,0.0,80,0.00,,,0.00,weatherlink.com 1.10,2013-01-24 07:26:00,
2013-01-24 02:41:00,-0.6,-5.0,30.20,NNE,24,0.0,0.0,80,0.00,,,0.00,weatherlink.com 1.10,2013-01-24 07:41:00,
2013-01-24 02:56:00,-0.9,-5.0,30.20,NNE,24,0.0,0.0,81,0.00,,,0.00,weatherlink.com 1.10,2013-01-24 07:56:00,
2013-01-24 03:12:00,-1.2,-5.0,30.20,NNE,24,0.0,0.0,82,0.00,,,0.00,weatherlink.com 1.10,2013-01-24 08:12:00,
2013-01-24 03:26:00,-1.6,-6.0,30.20,NNE,24,0.0,0.0,82,0.00,,,0.00,weatherlink.com 1.10,2013-01-24 08:26:00,
2013-01-24 03:41:00,-1.8,-6.0,30.19,NNE,24,0.0,0.0,83,0.00,,,0.00,weatherlink.com 1.10,2013-01-24 08:41:00,
2013-01-24 03:56:00,-1.8,-6.0,30.19,NNE,24,0.0,0.0,84,0.00,,,0.00,weatherlink.com 1.10,2013-01-24 08:56:00,
2013-01-24 04:11:00,-1.9,-6.0,30.20,NNE,24,0.0,0.0,84,0.00,,,0.00,weatherlink.com 1.10,2013-01-24 09:11:00,
2013-01-24 04:27:00,-1.8,-6.0,30.20,NNE,14,0.0,1.0,84,0.00,,,0.00,weatherlink.com 1.10,2013-01-24 09:27:00,
2013-01-24 04:42:00,-1.9,-6.0,30.21,NNE,14,0.0,0.0,84,0.00,,,0.00,weatherlink.com 1.10,2013-01-24 09:42:00,
2013-01-24 04:57:00,-2.0,-6.0,30.21,NNE,14,0.0,1.0,84,0.00,,,0.00,weatherlink.com 1.10,2013-01-24 09:57:00,
2013-01-24 05:12:00,-2.1,-6.0,30.21,NNE,14,0.0,0.0,84,0.00,,,0.00,weatherlink.com 1.10,2013-01-24 10:12:00,
2013-01-24 05:27:00,-2.2,-6.0,30.22,NNE,14,0.0,0.0,84,0.00,,,0.00,weatherlink.com 1.10,2013-01-24 10:27:00,
2013-01-24 05:42:00,-2.2,-6.0,30.23,NNE,14,0.0,1.0,84,0.00,,,0.00,weatherlink.com 1.10,2013-01-24 10:42:00,
2013-01-24 05:57:00,-1.9,-6.0,30.23,NNE,14,0.0,0.0,84,0.00,,,0.00,weatherlink.com 1.10,2013-01-24 10:57:00,
2013-01-24 06:12:00,-1.6,-6.0,30.23,NNE,14,0.0,0.0,83,0.00,,,0.00,weatherlink.com 1.10,2013-01-24 11:12:00,
2013-01-24 06:27:00,-1.5,-5.0,30.23,NNE,14,0.0,1.0,83,0.00,,,0.00,weatherlink.com 1.10,2013-01-24 11:27:00,
2013-01-24 06:42:00,-1.3,-5.0,30.24,NNE,14,0.0,1.0,83,0.00,,,0.00,weatherlink.com 1.10,2013-01-24 11:42:00,
2013-01-24 06:57:00,-1.2,-5.0,30.24,NNE,16,0.0,2.0,82,0.00,,,0.00,weatherlink.com 1.10,2013-01-24 11:57:00,
2013-01-24 07:12:00,-0.8,-5.0,30.25,NNE,13,0.0,2.0,81,0.00,,,0.00,weatherlink.com 1.10,2013-01-24 12:12:00,
2013-01-24 07:27:00,-0.5,-5.0,30.25,NNE,24,0.0,1.0,81,0.00,,,0.00,weatherlink.com 1.10,2013-01-24 12:27:00,
2013-01-24 07:43:00,-0.5,-5.0,30.26,NNE,24,0.0,0.0,81,0.00,,,0.00,weatherlink.com 1.10,2013-01-24 12:43:00,
2013-01-24 07:58:00,-0.9,-5.0,30.26,NNE,24,0.0,0.0,82,0.00,,,0.00,weatherlink.com 1.10,2013-01-24 12:58:00,
2013-01-24 08:13:00,-1.1,-5.0,30.27,NNE,24,0.0,1.0,83,0.00,,,0.00,weatherlink.com 1.10,2013-01-24 13:13:00,
2013-01-24 08:28:00,-0.4,-5.0,30.27,NNE,24,0.0,1.0,82,0.00,,,0.00,weatherlink.com 1.10,2013-01-24 13:28:00,
2013-01-24 08:43:00,0.5,-4.0,30.27,NNE,24,0.0,2.0,83,0.00,,,0.00,weatherlink.com 1.10,2013-01-24 13:43:00,
2013-01-24 08:58:00,3.9,0.0,30.27,SW,219,1.0,4.0,82,0.00,,,0.00,weatherlink.com 1.10,2013-01-24 13:58:00,
2013-01-24 09:13:00,7.3,0.0,30.27,South,184,1.0,5.0,73,0.00,,,0.00,weatherlink.com 1.10,2013-01-24 14:13:00,
2013-01-24 09:28:00,9.3,1.0,30.27,NNE,20,3.0,7.0,69,0.00,,,0.00,weatherlink.com 1.10,2013-01-24 14:28:00,
2013-01-24 09:43:00,10.3,0.0,30.27,North,11,3.0,10.0,64,0.00,,,0.00,weatherlink.com 1.10,2013-01-24 14:43:00,
2013-01-24 09:58:00,11.6,2.0,30.28,NNE,30,7.0,11.0,64,0.00,,,0.00,weatherlink.com 1.10,2013-01-24 14:58:00,
2013-01-24 10:13:00,12.7,2.0,30.28,SW,232,2.0,6.0,61,0.00,,,0.00,weatherlink.com 1.10,2013-01-24 15:13:00,
2013-01-24 10:29:00,13.8,2.0,30.29,NNE,24,2.0,14.0,60,0.00,,,0.00,weatherlink.com 1.10,2013-01-24 15:29:00,
2013-01-24 10:43:00,14.6,3.0,30.29,WNW,294,2.0,8.0,60,0.00,,,0.00,weatherlink.com 1.10,2013-01-24 15:43:00,
2013-01-24 10:58:00,15.0,2.0,30.29,NW,325,1.0,7.0,56,0.00,,,0.00,weatherlink.com 1.10,2013-01-24 15:58:00,
2013-01-24 11:14:00,13.9,0.0,30.28,NNW,330,2.0,16.0,54,0.00,,,0.00,weatherlink.com 1.10,2013-01-24 16:14:00,
2013-01-24 11:29:00,15.3,1.0,30.28,SW,223,2.0,9.0,54,0.00,,,0.00,weatherlink.com 1.10,2013-01-24 16:29:00,
2013-01-24 11:44:00,15.8,1.0,30.27,SW,217,5.0,14.0,51,0.00,,,0.00,weatherlink.com 1.10,2013-01-24 16:44:00,
2013-01-24 11:59:00,16.1,-1.0,30.26,NNE,19,8.0,14.0,48,0.00,,,0.00,weatherlink.com 1.10,2013-01-24 16:59:00,
2013-01-24 12:14:00,17.5,2.0,30.26,NNW,336,0.0,10.0,50,0.00,,,0.00,weatherlink.com 1.10,2013-01-24 17:14:00,
2013-01-24 12:29:00,17.6,1.0,30.26,SW,221,2.0,12.0,48,0.00,,,0.00,weatherlink.com 1.10,2013-01-24 17:29:00,
2013-01-24 12:44:00,18.4,1.0,30.27,South,184,1.0,10.0,47,0.00,,,0.00,weatherlink.com 1.10,2013-01-24 17:44:00,
2013-01-24 12:59:00,16.5,-2.0,30.26,South,172,0.0,16.0,44,0.00,,,0.00,weatherlink.com 1.10,2013-01-24 17:59:00,
2013-01-24 13:14:00,18.0,0.0,30.26,West,270,6.0,13.0,45,0.00,,,0.00,weatherlink.com 1.10,2013-01-24 18:14:00,
2013-01-24 13:29:00,17.3,-2.0,30.27,South,186,7.0,15.0,43,0.00,,,0.00,weatherlink.com 1.10,2013-01-24 18:29:00,
2013-01-24 13:44:00,18.1,-3.0,30.27,SSW,205,2.0,12.0,40,0.00,,,0.00,weatherlink.com 1.10,2013-01-24 18:44:00,
2013-01-24 13:59:00,18.2,-2.0,30.26,WSW,254,8.0,14.0,41,0.00,,,0.00,weatherlink.com 1.10,2013-01-24 18:59:00,
2013-01-24 14:14:00,18.0,-3.0,30.27,SSW,212,9.0,12.0,40,0.00,,,0.00,weatherlink.com 1.10,2013-01-24 19:14:00,
2013-01-24 14:29:00,18.6,-3.0,30.28,SW,227,8.0,13.0,39,0.00,,,0.00,weatherlink.com 1.10,2013-01-24 19:29:00,
2013-01-24 14:45:00,18.0,-4.0,30.28,WSW,256,5.0,15.0,37,0.00,,,0.00,weatherlink.com 1.10,2013-01-24 19:45:00,
2013-01-24 15:00:00,18.4,-3.0,30.28,South,179,4.0,16.0,38,0.00,,,0.00,weatherlink.com 1.10,2013-01-24 20:00:00,
2013-01-24 15:15:00,17.6,-5.0,30.28,WNW,299,6.0,14.0,36,0.00,,,0.00,weatherlink.com 1.10,2013-01-24 20:15:00,
2013-01-24 15:30:00,17.2,-6.0,30.28,South,181,3.0,10.0,36,0.00,,,0.00,weatherlink.com 1.10,2013-01-24 20:30:00,
2013-01-24 15:45:00,16.4,-6.0,30.30,NNW,333,7.0,12.0,37,0.00,,,0.00,weatherlink.com 1.10,2013-01-24 20:45:00,
2013-01-24 16:00:00,16.1,-6.0,30.30,SW,225,3.0,16.0,37,0.00,,,0.00,weatherlink.com 1.10,2013-01-24 21:00:00,
2013-01-24 16:15:00,15.6,-6.0,30.30,South,169,2.0,19.0,38,0.00,,,0.00,weatherlink.com 1.10,2013-01-24 21:15:00,
2013-01-24 16:30:00,14.9,-5.0,30.31,SE,136,2.0,9.0,41,0.00,,,0.00,weatherlink.com 1.10,2013-01-24 21:30:00,
2013-01-24 16:45:00,14.1,-3.0,30.32,SW,214,1.0,11.0,46,0.00,,,0.00,weatherlink.com 1.10,2013-01-24 21:45:00,
2013-01-24 17:02:00,13.5,-4.0,30.33,SSW,192,5.0,9.0,46,0.00,,,0.00,weatherlink.com 1.10,2013-01-24 22:02:00,
2013-01-24 17:15:00,13.0,-4.0,30.34,NNE,24,3.0,10.0,47,0.00,,,0.00,weatherlink.com 1.10,2013-01-24 22:15:00,
2013-01-24 17:32:00,12.7,-3.0,30.34,SSW,213,4.0,6.0,49,0.00,,,0.00,weatherlink.com 1.10,2013-01-24 22:32:00,
2013-01-24 17:46:00,12.4,-3.0,30.36,SW,236,1.0,4.0,51,0.00,,,0.00,weatherlink.com 1.10,2013-01-24 22:46:00,
2013-01-24 18:02:00,12.1,-3.0,30.36,SSW,204,1.0,13.0,52,0.00,,,0.00,weatherlink.com 1.10,2013-01-24 23:02:00,
2013-01-24 18:16:00,11.9,-2.0,30.36,SSW,199,3.0,8.0,54,0.00,,,0.00,weatherlink.com 1.10,2013-01-24 23:16:00,
2013-01-24 18:31:00,11.8,-1.0,30.37,SW,218,0.0,9.0,56,0.00,,,0.00,weatherlink.com 1.10,2013-01-24 23:31:00,
2013-01-24 18:46:00,11.6,-1.0,30.37,NNE,13,0.0,4.0,56,0.00,,,0.00,weatherlink.com 1.10,2013-01-24 23:46:00,
2013-01-24 19:01:00,11.6,0.0,30.38,ENE,69,0.0,10.0,59,0.00,,,0.00,weatherlink.com 1.10,2013-01-25 00:01:00,
2013-01-24 19:16:00,11.5,0.0,30.39,NE,34,4.0,10.0,61,0.00,,,0.00,weatherlink.com 1.10,2013-01-25 00:16:00,
2013-01-24 19:32:00,11.6,1.0,30.38,SSW,207,2.0,11.0,63,0.00,,,0.00,weatherlink.com 1.10,2013-01-25 00:32:00,
2013-01-24 19:47:00,11.7,2.0,30.37,SSW,210,2.0,9.0,64,0.00,,,0.00,weatherlink.com 1.10,2013-01-25 00:47:00,
2013-01-24 20:02:00,11.9,2.0,30.37,NE,46,5.0,7.0,65,0.00,,,0.00,weatherlink.com 1.10,2013-01-25 01:02:00,
2013-01-24 20:17:00,11.9,2.0,30.37,NNE,15,2.0,9.0,65,0.00,,,0.00,weatherlink.com 1.10,2013-01-25 01:17:00,
2013-01-24 20:32:00,11.9,3.0,30.37,SSW,194,3.0,8.0,66,0.00,,,0.00,weatherlink.com 1.10,2013-01-25 01:32:00,
2013-01-24 20:47:00,12.0,3.0,30.37,NNE,19,1.0,6.0,66,0.00,,,0.00,weatherlink.com 1.10,2013-01-25 01:47:00,
2013-01-24 21:01:00,12.1,3.0,30.37,North,9,2.0,13.0,67,0.00,,,0.00,weatherlink.com 1.10,2013-01-25 02:01:00,
2013-01-24 21:17:00,12.6,3.0,30.38,SE,135,1.0,8.0,65,0.00,,,0.00,weatherlink.com 1.10,2013-01-25 02:17:00,
2013-01-24 21:32:00,12.9,3.0,30.38,South,188,2.0,8.0,65,0.00,,,0.00,weatherlink.com 1.10,2013-01-25 02:32:00,
2013-01-24 21:47:00,13.0,3.0,30.38,SW,223,1.0,11.0,65,0.00,,,0.00,weatherlink.com 1.10,2013-01-25 02:47:00,
2013-01-24 22:02:00,13.1,3.0,30.38,SW,215,1.0,7.0,65,0.00,,,0.00,weatherlink.com 1.10,2013-01-25 03:02:00,
2013-01-24 22:17:00,13.2,3.0,30.37,East,101,3.0,9.0,65,0.00,,,0.00,weatherlink.com 1.10,2013-01-25 03:17:00,
2013-01-24 22:32:00,13.1,3.0,30.38,WSW,244,2.0,7.0,65,0.00,,,0.00,weatherlink.com 1.10,2013-01-25 03:32:00,
2013-01-24 22:47:00,13.1,4.0,30.38,SW,229,1.0,4.0,66,0.00,,,0.00,weatherlink.com 1.10,2013-01-25 03:47:00,
2013-01-24 23:02:00,13.1,3.0,30.38,SW,221,1.0,12.0,65,0.00,,,0.00,weatherlink.com 1.10,2013-01-25 04:02:00,
2013-01-24 23:17:00,13.0,3.0,30.39,NE,43,2.0,8.0,65,0.00,,,0.00,weatherlink.com 1.10,2013-01-25 04:17:00,
2013-01-24 23:32:00,12.9,3.0,30.39,WSW,251,1.0,10.0,65,0.00,,,0.00,weatherlink.com 1.10,2013-01-25 04:32:00,
2013-01-24 23:47:00,12.8,3.0,30.40,West,259,1.0,11.0,65,0.00,,,0.00,weatherlink.com 1.10,2013-01-25 04:47:00,